sensor_id;sensor_type;location;lat;lon;timestamp;temperature;humidity
48978;DHT22;34793;48.940;2.618;2022-10-16T15:25:44;27.70;79.70
48978;DHT22;34793;48.940;2.618;2022-10-16T15:28:11;26.80;79.00
48978;DHT22;34793;48.940;2.618;2022-10-16T15:30:37;26.90;78.70
48978;DHT22;34793;48.940;2.618;2022-10-16T15:33:03;26.90;78.90
48978;DHT22;34793;48.940;2.618;2022-10-16T15:35:29;27.00;78.90
48978;DHT22;34793;48.940;2.618;2022-10-16T15:37:56;27.10;78.30
48978;DHT22;34793;48.940;2.618;2022-10-16T15:40:22;27.20;77.90
48978;DHT22;34793;48.940;2.618;2022-10-16T15:42:48;27.10;78.60
48978;DHT22;34793;48.940;2.618;2022-10-16T15:45:14;27.10;78.50
48978;DHT22;34793;48.940;2.618;2022-10-16T15:47:40;27.10;78.20
48978;DHT22;34793;48.940;2.618;2022-10-16T15:50:06;27.40;78.20
48978;DHT22;34793;48.940;2.618;2022-10-16T15:52:31;27.40;78.10
48978;DHT22;34793;48.940;2.618;2022-10-16T15:54:57;27.50;78.00
48978;DHT22;34793;48.940;2.618;2022-10-16T15:57:23;27.60;77.10
48978;DHT22;34793;48.940;2.618;2022-10-16T15:59:49;27.60;77.20
48978;DHT22;34793;48.940;2.618;2022-10-16T16:02:15;27.60;77.50
48978;DHT22;34793;48.940;2.618;2022-10-16T16:04:40;27.70;77.30
48978;DHT22;34793;48.940;2.618;2022-10-16T16:07:06;27.70;77.40
48978;DHT22;34793;48.940;2.618;2022-10-16T16:09:32;27.60;77.00
48978;DHT22;34793;48.940;2.618;2022-10-16T16:11:58;27.60;77.30
48978;DHT22;34793;48.940;2.618;2022-10-16T16:14:25;27.50;77.60
48978;DHT22;34793;48.940;2.618;2022-10-16T16:16:53;27.60;77.60
48978;DHT22;34793;48.940;2.618;2022-10-16T16:19:19;27.60;77.50
48978;DHT22;34793;48.940;2.618;2022-10-16T16:21:46;27.60;77.40
48978;DHT22;34793;48.940;2.618;2022-10-16T16:24:12;27.60;77.50
48978;DHT22;34793;48.940;2.618;2022-10-16T16:26:37;27.60;77.70
48978;DHT22;34793;48.940;2.618;2022-10-16T16:29:05;27.60;77.50
48978;DHT22;34793;48.940;2.618;2022-10-16T16:31:31;27.50;77.60
48978;DHT22;34793;48.940;2.618;2022-10-16T16:33:57;27.60;77.70
48978;DHT22;34793;48.940;2.618;2022-10-16T16:36:23;27.60;77.50
48978;DHT22;34793;48.940;2.618;2022-10-16T16:38:49;27.60;77.80
48978;DHT22;34793;48.940;2.618;2022-10-16T16:41:15;27.60;77.90
48978;DHT22;34793;48.940;2.618;2022-10-16T16:43:41;27.60;78.10
48978;DHT22;34793;48.940;2.618;2022-10-16T16:46:07;27.50;77.80
48978;DHT22;34793;48.940;2.618;2022-10-16T16:48:32;27.50;77.80
48978;DHT22;34793;48.940;2.618;2022-10-16T16:54:01;27.40;78.20
48978;DHT22;34793;48.940;2.618;2022-10-16T16:56:26;27.30;78.30
48978;DHT22;34793;48.940;2.618;2022-10-16T16:59:10;27.30;78.30
48978;DHT22;34793;48.940;2.618;2022-10-16T17:01:36;27.10;78.40
48978;DHT22;34793;48.940;2.618;2022-10-16T17:04:01;27.10;78.70
48978;DHT22;34793;48.940;2.618;2022-10-16T17:06:28;27.00;78.70
48978;DHT22;34793;48.940;2.618;2022-10-16T17:08:54;27.00;78.90
48978;DHT22;34793;48.940;2.618;2022-10-16T17:11:21;26.90;78.80
48978;DHT22;34793;48.940;2.618;2022-10-16T17:13:47;26.90;78.90
48978;DHT22;34793;48.940;2.618;2022-10-16T17:16:12;26.90;79.60
48978;DHT22;34793;48.940;2.618;2022-10-16T17:18:38;26.60;80.50
48978;DHT22;34793;48.940;2.618;2022-10-16T17:21:05;26.00;81.80
48978;DHT22;34793;48.940;2.618;2022-10-16T17:23:31;26.00;82.40
48978;DHT22;34793;48.940;2.618;2022-10-16T17:25:58;25.90;83.40
48978;DHT22;34793;48.940;2.618;2022-10-16T17:28:27;25.90;83.50
48978;DHT22;34793;48.940;2.618;2022-10-16T17:30:52;26.00;82.90
48978;DHT22;34793;48.940;2.618;2022-10-16T17:33:18;26.20;82.70
48978;DHT22;34793;48.940;2.618;2022-10-16T17:35:44;26.20;82.70
48978;DHT22;34793;48.940;2.618;2022-10-16T17:38:10;26.00;82.60
48978;DHT22;34793;48.940;2.618;2022-10-16T17:40:36;25.90;83.30
48978;DHT22;34793;48.940;2.618;2022-10-16T17:43:08;25.60;84.20
48978;DHT22;34793;48.940;2.618;2022-10-16T17:45:36;25.70;84.50
48978;DHT22;34793;48.940;2.618;2022-10-16T17:48:03;25.80;83.50
48978;DHT22;34793;48.940;2.618;2022-10-16T17:50:28;25.80;83.90
48978;DHT22;34793;48.940;2.618;2022-10-16T17:52:55;25.90;83.30
48978;DHT22;34793;48.940;2.618;2022-10-16T17:55:20;26.00;82.90
48978;DHT22;34793;48.940;2.618;2022-10-16T17:57:45;26.00;82.90
48978;DHT22;34793;48.940;2.618;2022-10-16T18:00:11;25.90;82.20
48978;DHT22;34793;48.940;2.618;2022-10-16T18:02:37;25.80;82.80
48978;DHT22;34793;48.940;2.618;2022-10-16T18:05:07;25.60;83.50
48978;DHT22;34793;48.940;2.618;2022-10-16T18:07:32;25.70;83.20
48978;DHT22;34793;48.940;2.618;2022-10-16T18:09:58;25.50;84.30
48978;DHT22;34793;48.940;2.618;2022-10-16T18:12:23;25.50;84.10
48978;DHT22;34793;48.940;2.618;2022-10-16T18:14:49;25.40;84.40
48978;DHT22;34793;48.940;2.618;2022-10-16T18:17:14;25.50;84.20
48978;DHT22;34793;48.940;2.618;2022-10-16T18:19:43;25.50;84.10
48978;DHT22;34793;48.940;2.618;2022-10-16T18:22:09;25.60;83.20
48978;DHT22;34793;48.940;2.618;2022-10-16T18:24:34;25.60;83.40
48978;DHT22;34793;48.940;2.618;2022-10-16T18:27:00;25.70;82.80
48978;DHT22;34793;48.940;2.618;2022-10-16T18:29:26;25.60;83.30
48978;DHT22;34793;48.940;2.618;2022-10-16T18:31:52;25.60;83.10
48978;DHT22;34793;48.940;2.618;2022-10-16T18:34:18;25.50;83.30
48978;DHT22;34793;48.940;2.618;2022-10-16T18:36:44;25.50;83.10
48978;DHT22;34793;48.940;2.618;2022-10-16T18:39:09;25.40;82.90
48978;DHT22;34793;48.940;2.618;2022-10-16T18:41:40;25.00;84.60
48978;DHT22;34793;48.940;2.618;2022-10-16T18:44:08;25.10;84.20
48978;DHT22;34793;48.940;2.618;2022-10-16T18:46:35;25.00;84.10
48978;DHT22;34793;48.940;2.618;2022-10-16T18:49:00;25.00;84.40
48978;DHT22;34793;48.940;2.618;2022-10-16T18:51:31;24.80;85.80
48978;DHT22;34793;48.940;2.618;2022-10-16T18:53:58;24.70;85.50
48978;DHT22;34793;48.940;2.618;2022-10-16T18:56:24;24.60;85.60
48978;DHT22;34793;48.940;2.618;2022-10-16T18:58:50;24.50;86.70
48978;DHT22;34793;48.940;2.618;2022-10-16T19:01:19;24.50;85.80
48978;DHT22;34793;48.940;2.618;2022-10-16T19:03:45;24.50;86.10
48978;DHT22;34793;48.940;2.618;2022-10-16T19:06:11;24.60;85.70
48978;DHT22;34793;48.940;2.618;2022-10-16T19:08:38;24.50;86.00
48978;DHT22;34793;48.940;2.618;2022-10-16T19:11:07;24.70;85.60
48978;DHT22;34793;48.940;2.618;2022-10-16T19:13:33;24.60;85.80
48978;DHT22;34793;48.940;2.618;2022-10-16T19:15:59;24.70;85.40
48978;DHT22;34793;48.940;2.618;2022-10-16T19:18:25;24.60;84.30
48978;DHT22;34793;48.940;2.618;2022-10-16T19:20:51;24.70;84.80
48978;DHT22;34793;48.940;2.618;2022-10-16T19:23:17;24.70;84.70
48978;DHT22;34793;48.940;2.618;2022-10-16T19:25:42;24.60;84.40
48978;DHT22;34793;48.940;2.618;2022-10-16T19:28:08;24.70;84.20
48978;DHT22;34793;48.940;2.618;2022-10-16T19:30:37;24.70;84.30
48978;DHT22;34793;48.940;2.618;2022-10-16T19:33:03;24.70;84.20
48978;DHT22;34793;48.940;2.618;2022-10-16T19:35:29;24.70;84.00
48978;DHT22;34793;48.940;2.618;2022-10-16T19:37:55;24.70;84.50
48978;DHT22;34793;48.940;2.618;2022-10-16T19:40:21;24.70;84.60
48978;DHT22;34793;48.940;2.618;2022-10-16T19:42:46;24.60;85.20
48978;DHT22;34793;48.940;2.618;2022-10-16T19:45:12;24.60;85.30
48978;DHT22;34793;48.940;2.618;2022-10-16T19:47:37;24.60;84.60
48978;DHT22;34793;48.940;2.618;2022-10-16T19:50:03;24.60;84.90
48978;DHT22;34793;48.940;2.618;2022-10-16T19:52:31;24.50;84.50
48978;DHT22;34793;48.940;2.618;2022-10-16T19:54:56;24.40;84.70
48978;DHT22;34793;48.940;2.618;2022-10-16T19:57:25;24.40;85.40
48978;DHT22;34793;48.940;2.618;2022-10-16T19:59:51;24.30;84.70
48978;DHT22;34793;48.940;2.618;2022-10-16T20:02:16;24.20;85.60
48978;DHT22;34793;48.940;2.618;2022-10-16T20:04:42;24.20;85.70
48978;DHT22;34793;48.940;2.618;2022-10-16T20:07:07;24.10;85.40
48978;DHT22;34793;48.940;2.618;2022-10-16T20:09:33;23.90;86.70
48978;DHT22;34793;48.940;2.618;2022-10-16T20:11:59;23.90;86.80
48978;DHT22;34793;48.940;2.618;2022-10-16T20:14:25;23.90;86.70
48978;DHT22;34793;48.940;2.618;2022-10-16T20:16:50;24.00;86.80
48978;DHT22;34793;48.940;2.618;2022-10-16T20:19:17;24.00;86.70
48978;DHT22;34793;48.940;2.618;2022-10-16T20:21:43;24.10;86.60
48978;DHT22;34793;48.940;2.618;2022-10-16T20:24:08;24.10;86.70
48978;DHT22;34793;48.940;2.618;2022-10-16T20:26:34;24.10;86.50
48978;DHT22;34793;48.940;2.618;2022-10-16T20:29:00;24.10;85.80
48978;DHT22;34793;48.940;2.618;2022-10-16T20:31:27;24.10;86.40
48978;DHT22;34793;48.940;2.618;2022-10-16T20:33:54;24.10;86.30
48978;DHT22;34793;48.940;2.618;2022-10-16T20:36:20;24.20;86.00
48978;DHT22;34793;48.940;2.618;2022-10-16T20:38:46;24.20;86.20
48978;DHT22;34793;48.940;2.618;2022-10-16T20:41:12;24.20;85.50
48978;DHT22;34793;48.940;2.618;2022-10-16T20:43:41;24.20;85.00
48978;DHT22;34793;48.940;2.618;2022-10-16T20:46:08;24.20;85.60
48978;DHT22;34793;48.940;2.618;2022-10-16T20:51:37;24.20;85.40
48978;DHT22;34793;48.940;2.618;2022-10-16T20:54:04;24.20;85.00
48978;DHT22;34793;48.940;2.618;2022-10-16T20:56:30;24.10;85.40
48978;DHT22;34793;48.940;2.618;2022-10-16T20:58:56;24.10;85.60
48978;DHT22;34793;48.940;2.618;2022-10-16T21:01:22;24.10;85.40
48978;DHT22;34793;48.940;2.618;2022-10-16T21:03:48;24.10;85.90
48978;DHT22;34793;48.940;2.618;2022-10-16T21:06:14;24.00;85.90
48978;DHT22;34793;48.940;2.618;2022-10-16T21:08:40;24.00;87.10
48978;DHT22;34793;48.940;2.618;2022-10-16T21:11:13;23.90;87.00
48978;DHT22;34793;48.940;2.618;2022-10-16T21:13:39;23.90;87.00
48978;DHT22;34793;48.940;2.618;2022-10-16T21:16:05;24.00;87.60
48978;DHT22;34793;48.940;2.618;2022-10-16T21:18:32;24.10;86.90
48978;DHT22;34793;48.940;2.618;2022-10-16T21:20:57;24.10;86.30
48978;DHT22;34793;48.940;2.618;2022-10-16T21:23:23;24.10;86.40
48978;DHT22;34793;48.940;2.618;2022-10-16T21:25:48;24.10;86.60
48978;DHT22;34793;48.940;2.618;2022-10-16T21:28:14;24.20;86.40
48978;DHT22;34793;48.940;2.618;2022-10-16T21:30:40;24.20;86.10
48978;DHT22;34793;48.940;2.618;2022-10-16T21:33:05;24.20;85.70
48978;DHT22;34793;48.940;2.618;2022-10-16T21:35:31;24.20;85.90
48978;DHT22;34793;48.940;2.618;2022-10-16T21:37:56;24.00;86.40
48978;DHT22;34793;48.940;2.618;2022-10-16T21:40:22;24.10;86.50
48978;DHT22;34793;48.940;2.618;2022-10-16T21:42:47;24.10;86.40
48978;DHT22;34793;48.940;2.618;2022-10-16T21:45:13;24.00;86.40
48978;DHT22;34793;48.940;2.618;2022-10-16T21:47:38;24.10;86.40
48978;DHT22;34793;48.940;2.618;2022-10-16T21:50:04;24.10;86.30
48978;DHT22;34793;48.940;2.618;2022-10-16T21:52:29;24.10;86.10
48978;DHT22;34793;48.940;2.618;2022-10-16T21:54:55;24.00;86.50
48978;DHT22;34793;48.940;2.618;2022-10-16T21:57:20;24.00;86.10
48978;DHT22;34793;48.940;2.618;2022-10-16T21:59:48;24.00;86.10
48978;DHT22;34793;48.940;2.618;2022-10-16T22:02:13;24.10;86.30
48978;DHT22;34793;48.940;2.618;2022-10-16T22:04:39;24.00;86.80
48978;DHT22;34793;48.940;2.618;2022-10-16T22:07:04;24.00;86.30
48978;DHT22;34793;48.940;2.618;2022-10-16T22:09:29;24.00;86.20
48978;DHT22;34793;48.940;2.618;2022-10-16T22:11:55;23.90;86.80
48978;DHT22;34793;48.940;2.618;2022-10-16T22:14:20;24.00;87.10
48978;DHT22;34793;48.940;2.618;2022-10-16T22:16:46;24.00;86.40
48978;DHT22;34793;48.940;2.618;2022-10-16T22:19:13;23.90;87.20
48978;DHT22;34793;48.940;2.618;2022-10-16T22:21:39;23.80;87.50
48978;DHT22;34793;48.940;2.618;2022-10-16T22:24:05;23.90;87.20
48978;DHT22;34793;48.940;2.618;2022-10-16T22:26:31;23.90;87.30
48978;DHT22;34793;48.940;2.618;2022-10-16T22:28:57;23.90;87.30
48978;DHT22;34793;48.940;2.618;2022-10-16T22:31:22;23.80;87.50
48978;DHT22;34793;48.940;2.618;2022-10-16T22:33:58;23.80;88.00
48978;DHT22;34793;48.940;2.618;2022-10-16T22:36:24;23.80;87.70
48978;DHT22;34793;48.940;2.618;2022-10-16T22:38:50;23.90;88.10
48978;DHT22;34793;48.940;2.618;2022-10-16T22:41:15;23.90;87.20
48978;DHT22;34793;48.940;2.618;2022-10-16T22:43:42;23.90;87.40
48978;DHT22;34793;48.940;2.618;2022-10-16T22:46:09;23.80;87.40
48978;DHT22;34793;48.940;2.618;2022-10-16T22:48:35;23.80;87.30
48978;DHT22;34793;48.940;2.618;2022-10-16T22:51:01;23.90;88.30
48978;DHT22;34793;48.940;2.618;2022-10-16T22:53:26;23.80;88.40
48978;DHT22;34793;48.940;2.618;2022-10-16T22:55:52;23.90;88.50
48978;DHT22;34793;48.940;2.618;2022-10-16T22:58:17;23.90;88.30
48978;DHT22;34793;48.940;2.618;2022-10-16T23:00:43;23.90;88.10
48978;DHT22;34793;48.940;2.618;2022-10-16T23:03:09;24.00;87.60
48978;DHT22;34793;48.940;2.618;2022-10-16T23:05:37;24.10;87.50
48978;DHT22;34793;48.940;2.618;2022-10-16T23:08:02;24.10;87.00
48978;DHT22;34793;48.940;2.618;2022-10-16T23:10:28;24.00;87.70
48978;DHT22;34793;48.940;2.618;2022-10-16T23:12:54;23.90;87.30
48978;DHT22;34793;48.940;2.618;2022-10-16T23:15:22;23.90;87.90
48978;DHT22;34793;48.940;2.618;2022-10-16T23:17:48;23.70;88.30
48978;DHT22;34793;48.940;2.618;2022-10-16T23:20:13;23.80;88.60
48978;DHT22;34793;48.940;2.618;2022-10-16T23:22:39;23.90;88.40
48978;DHT22;34793;48.940;2.618;2022-10-16T23:25:04;23.90;88.40
48978;DHT22;34793;48.940;2.618;2022-10-16T23:27:31;23.80;88.90
48978;DHT22;34793;48.940;2.618;2022-10-16T23:29:56;23.90;88.70
48978;DHT22;34793;48.940;2.618;2022-10-16T23:32:21;23.80;89.00
48978;DHT22;34793;48.940;2.618;2022-10-16T23:34:47;23.80;89.30
48978;DHT22;34793;48.940;2.618;2022-10-16T23:37:13;23.90;89.10
48978;DHT22;34793;48.940;2.618;2022-10-16T23:39:38;23.90;89.00
48978;DHT22;34793;48.940;2.618;2022-10-16T23:42:04;23.90;89.60
48978;DHT22;34793;48.940;2.618;2022-10-16T23:44:29;23.80;89.10
48978;DHT22;34793;48.940;2.618;2022-10-16T23:46:54;23.80;89.20
48978;DHT22;34793;48.940;2.618;2022-10-16T23:49:20;23.90;89.20
48978;DHT22;34793;48.940;2.618;2022-10-16T23:51:45;23.90;89.40
48978;DHT22;34793;48.940;2.618;2022-10-16T23:54:11;24.00;89.10
48978;DHT22;34793;48.940;2.618;2022-10-16T23:56:36;23.80;89.10
48978;DHT22;34793;48.940;2.618;2022-10-16T23:59:02;23.90;89.50
